createdAt,value
2023-08-12T00:01:45.810Z,19.55
2023-08-12T00:04:15.918Z,19.65
2023-08-12T00:06:43.754Z,19.55
2023-08-12T00:09:16.222Z,19.74
2023-08-12T00:11:43.988Z,20.02
2023-08-12T00:14:11.435Z,19.62
2023-08-12T00:16:38.866Z,19.27
2023-08-12T00:19:06.582Z,19.55
2023-08-12T00:21:33.954Z,19.75
2023-08-12T00:24:01.365Z,19.63
2023-08-12T00:26:29.050Z,19.91
2023-08-12T00:28:56.452Z,19.76
2023-08-12T00:31:24.265Z,19.65
2023-08-12T00:33:51.975Z,19.55
2023-08-12T00:36:19.477Z,19.74
2023-08-12T00:38:46.932Z,19.35
2023-08-12T00:41:14.642Z,19.54
2023-08-12T00:43:42.062Z,19.47
2023-08-12T00:46:09.468Z,19.50
2023-08-12T00:48:37.207Z,19.51
2023-08-12T00:51:04.972Z,19.60
2023-08-12T00:53:32.380Z,19.59
2023-08-12T00:56:00.135Z,19.62
2023-08-12T00:58:27.523Z,19.23
2023-08-12T01:00:54.960Z,19.58
2023-08-12T01:03:22.788Z,19.20
2023-08-12T01:05:50.551Z,19.20
2023-08-12T01:08:18.075Z,19.24
2023-08-12T01:10:52.664Z,19.01
2023-08-12T01:13:59.893Z,18.87
2023-08-12T01:16:31.880Z,19.30
2023-08-12T01:19:00.101Z,19.04
2023-08-12T01:21:27.865Z,19.11
2023-08-12T01:23:56.323Z,19.20
2023-08-12T01:26:23.720Z,19.42
2023-08-12T01:28:51.422Z,18.82
2023-08-12T01:31:28.614Z,19.19
2023-08-12T01:33:59.770Z,19.31
2023-08-12T01:36:28.675Z,19.32
2023-08-12T01:38:56.565Z,19.08
2023-08-12T01:41:24.383Z,19.02
2023-08-12T01:43:51.782Z,19.25
2023-08-12T01:46:19.469Z,19.43
2023-08-12T01:48:46.884Z,19.26
2023-08-12T01:51:14.419Z,19.16
2023-08-12T01:53:42.122Z,19.32
2023-08-12T01:56:09.572Z,19.21
2023-08-12T01:58:37.301Z,19.24
2023-08-12T02:01:05.078Z,19.17
2023-08-12T02:03:32.873Z,18.72
2023-08-12T02:06:00.351Z,18.77
2023-08-12T02:08:27.858Z,18.58
2023-08-12T02:10:55.596Z,18.74
2023-08-12T02:13:23.494Z,18.93
2023-08-12T02:15:50.953Z,18.43
2023-08-12T02:18:18.650Z,18.11
2023-08-12T02:20:48.133Z,18.41
2023-08-12T02:23:15.576Z,18.49
2023-08-12T02:25:43.239Z,18.64
2023-08-12T02:28:10.679Z,18.47
2023-08-12T02:30:38.090Z,18.84
2023-08-12T02:33:05.803Z,18.80
2023-08-12T02:35:33.745Z,18.87
2023-08-12T02:38:01.183Z,18.86
2023-08-12T02:40:30.442Z,18.38
2023-08-12T02:42:57.878Z,18.19
2023-08-12T02:45:25.398Z,18.55
2023-08-12T02:47:53.091Z,18.56
2023-08-12T02:50:20.637Z,18.57
2023-08-12T02:52:48.026Z,18.29
2023-08-12T02:55:15.775Z,18.41
2023-08-12T02:57:43.202Z,18.58
2023-08-12T03:00:11.751Z,18.62
2023-08-12T03:02:39.525Z,18.57
2023-08-12T03:05:07.401Z,18.56
2023-08-12T03:07:34.812Z,18.54
2023-08-12T03:10:02.765Z,18.27
2023-08-12T03:12:30.441Z,18.53
2023-08-12T03:14:57.884Z,18.74
2023-08-12T03:17:26.306Z,18.40
2023-08-12T03:19:55.393Z,18.51
2023-08-12T03:22:22.831Z,18.62
2023-08-12T03:24:50.576Z,18.20
2023-08-12T03:27:18.127Z,17.88
2023-08-12T03:29:45.842Z,18.20
2023-08-12T03:32:13.785Z,17.93
2023-08-12T03:34:41.237Z,18.03
2023-08-12T03:37:08.936Z,17.83
2023-08-12T03:39:36.774Z,17.57
2023-08-12T03:42:04.222Z,17.68
2023-08-12T03:44:31.660Z,17.46
2023-08-12T03:46:59.397Z,17.75
2023-08-12T03:49:27.164Z,18.26
2023-08-12T03:51:54.646Z,18.58
2023-08-12T03:54:22.369Z,18.25
2023-08-12T03:56:49.811Z,17.98
2023-08-12T03:59:18.157Z,18.19
2023-08-12T04:01:45.842Z,18.32
2023-08-12T04:04:14.522Z,18.41
2023-08-12T04:06:42.322Z,18.12
2023-08-12T04:09:09.731Z,17.94
2023-08-12T04:11:37.529Z,18.19
2023-08-12T04:14:05.055Z,18.42
2023-08-12T04:16:32.522Z,18.41
2023-08-12T04:19:00.274Z,18.85
2023-08-12T04:21:27.752Z,18.51
2023-08-12T04:23:55.218Z,18.72
2023-08-12T04:26:23.684Z,18.82
2023-08-12T04:28:51.114Z,18.92
2023-08-12T04:31:18.918Z,19.16
2023-08-12T04:33:47.166Z,19.33
2023-08-12T04:36:15.634Z,19.51
2023-08-12T04:38:43.154Z,19.44
2023-08-12T04:41:11.114Z,19.04
2023-08-12T04:43:38.708Z,19.17
2023-08-12T04:46:06.144Z,19.69
2023-08-12T04:48:33.893Z,19.50
2023-08-12T04:51:04.079Z,19.35
2023-08-12T04:53:31.600Z,19.33
2023-08-12T04:55:59.397Z,19.55
2023-08-12T04:58:27.678Z,19.88
2023-08-12T05:00:55.125Z,20.04
2023-08-12T05:03:23.079Z,20.23
2023-08-12T05:05:52.150Z,20.32
2023-08-12T05:08:20.193Z,20.85
2023-08-12T05:10:49.462Z,20.69
2023-08-12T05:13:17.621Z,20.71
2023-08-12T05:15:48.355Z,21.02
2023-08-12T05:18:16.436Z,21.20
2023-08-12T05:20:46.484Z,21.25
2023-08-12T05:23:14.688Z,21.87
2023-08-12T05:25:43.272Z,21.81
2023-08-12T05:28:10.765Z,22.03
2023-08-12T05:30:38.793Z,22.91
2023-08-12T05:33:06.624Z,24.66
2023-08-12T05:35:35.168Z,26.47
2023-08-12T05:38:03.011Z,28.15
2023-08-12T05:40:30.657Z,29.89
2023-08-12T05:42:58.103Z,31.15
2023-08-12T05:45:25.605Z,32.19
2023-08-12T05:47:53.431Z,33.01
2023-08-12T05:50:20.955Z,34.15
2023-08-12T05:52:48.490Z,34.97
2023-08-12T05:55:16.252Z,35.55
2023-08-12T05:57:43.689Z,35.39
2023-08-12T06:00:11.575Z,36.20
2023-08-12T06:02:39.602Z,36.87
2023-08-12T06:05:07.919Z,37.07
2023-08-12T06:07:35.392Z,37.73
2023-08-12T06:10:02.883Z,37.77
2023-08-12T06:12:30.665Z,38.66
2023-08-12T06:14:58.094Z,38.80
2023-08-12T06:17:25.655Z,39.06
2023-08-12T06:19:53.348Z,38.24
2023-08-12T06:22:20.763Z,39.25
2023-08-12T06:24:48.172Z,39.38
2023-08-12T06:27:15.851Z,39.10
2023-08-12T06:29:43.305Z,40.11
2023-08-12T06:32:14.169Z,40.10
2023-08-12T06:34:42.605Z,40.79
2023-08-12T06:37:10.025Z,39.70
2023-08-12T06:39:37.490Z,38.75
2023-08-12T06:42:05.652Z,39.90
2023-08-12T06:44:34.128Z,40.27
2023-08-12T06:47:01.514Z,41.06
2023-08-12T06:49:29.173Z,41.54
2023-08-12T06:51:56.566Z,41.61
2023-08-12T06:54:24.128Z,42.14
2023-08-12T06:56:51.813Z,42.66
2023-08-12T06:59:19.323Z,42.57
2023-08-12T07:01:46.790Z,42.81
2023-08-12T07:04:14.554Z,43.23
2023-08-12T07:06:41.988Z,43.62
2023-08-12T07:09:09.363Z,43.38
2023-08-12T07:11:37.049Z,39.94
2023-08-12T07:14:04.674Z,42.14
2023-08-12T07:16:32.053Z,42.11
2023-08-12T07:18:59.685Z,42.86
2023-08-12T07:21:27.163Z,43.83
2023-08-12T07:24:03.246Z,43.40
2023-08-12T07:26:32.402Z,44.39
2023-08-12T07:28:59.809Z,43.46
2023-08-12T07:31:27.349Z,44.33
2023-08-12T07:33:55.073Z,43.81
2023-08-12T07:36:22.483Z,43.12
2023-08-12T07:38:49.889Z,44.13
2023-08-12T07:41:17.559Z,45.30
2023-08-12T07:43:44.995Z,44.33
2023-08-12T07:46:12.445Z,45.19
2023-08-12T07:48:40.094Z,44.01
2023-08-12T07:51:07.499Z,44.96
2023-08-12T07:53:35.675Z,45.56
2023-08-12T07:56:03.423Z,44.44
2023-08-12T07:58:31.132Z,46.01
2023-08-12T08:00:58.565Z,46.62
2023-08-12T08:03:26.294Z,46.74
2023-08-12T08:05:53.728Z,46.73
2023-08-12T08:08:21.414Z,43.75
2023-08-12T08:10:49.112Z,45.18
2023-08-12T08:13:16.639Z,44.21
2023-08-12T08:15:44.204Z,45.54
2023-08-12T08:18:11.997Z,46.41
2023-08-12T08:20:39.485Z,45.66
2023-08-12T08:23:06.874Z,46.59
2023-08-12T08:25:34.574Z,44.01
2023-08-12T08:28:01.951Z,43.70
2023-08-12T08:30:29.423Z,44.68
2023-08-12T08:32:57.152Z,43.09
2023-08-12T08:35:24.624Z,41.74
2023-08-12T08:37:52.015Z,45.19
2023-08-12T08:40:21.831Z,45.56
2023-08-12T08:42:53.054Z,46.27
2023-08-12T08:45:21.783Z,46.19
2023-08-12T08:47:49.229Z,42.60
2023-08-12T08:50:16.669Z,44.93
2023-08-12T08:52:44.533Z,45.06
2023-08-12T08:55:13.928Z,44.35
2023-08-12T08:57:47.327Z,45.30
2023-08-12T09:00:18.097Z,46.00
2023-08-12T09:02:52.004Z,44.59
2023-08-12T09:05:21.682Z,44.97
2023-08-12T09:07:49.288Z,45.81
2023-08-12T09:10:16.696Z,45.30
2023-08-12T09:12:44.526Z,46.04
2023-08-12T09:15:12.000Z,46.72
2023-08-12T09:17:39.887Z,46.26
2023-08-12T09:20:12.775Z,44.97
2023-08-12T09:22:43.529Z,43.41
2023-08-12T09:25:11.221Z,44.40
2023-08-12T09:27:41.520Z,44.93
2023-08-12T09:30:09.600Z,44.41
2023-08-12T09:32:39.431Z,43.66
2023-08-12T09:35:09.935Z,44.77
2023-08-12T09:37:37.603Z,45.64
2023-08-12T09:40:07.208Z,44.24
2023-08-12T09:42:34.586Z,45.58
2023-08-12T09:45:02.497Z,46.14
2023-08-12T09:47:30.010Z,46.39
2023-08-12T09:49:57.454Z,46.15
2023-08-12T09:52:25.156Z,42.21
2023-08-12T09:54:52.542Z,42.68
2023-08-12T09:57:19.964Z,44.22
2023-08-12T09:59:47.671Z,45.95
2023-08-12T10:02:19.254Z,45.42
2023-08-12T10:04:47.127Z,46.98
2023-08-12T10:07:14.663Z,46.34
2023-08-12T10:09:42.102Z,45.01
2023-08-12T10:12:10.387Z,45.14
2023-08-12T10:14:38.722Z,43.47
2023-08-12T10:17:06.905Z,41.97
2023-08-12T10:19:35.187Z,40.48
2023-08-12T10:22:03.743Z,40.02
2023-08-12T10:24:31.227Z,37.69
2023-08-12T10:26:58.854Z,38.54
2023-08-12T10:29:26.310Z,31.04
2023-08-12T10:31:53.801Z,32.15
2023-08-12T10:34:22.724Z,33.30
2023-08-12T10:37:02.038Z,31.78
2023-08-12T10:39:32.847Z,30.73
2023-08-12T10:42:00.383Z,30.87
2023-08-12T10:44:41.034Z,32.91
2023-08-12T10:47:12.192Z,32.47
2023-08-12T10:49:40.399Z,32.09
2023-08-12T10:52:07.808Z,32.82
2023-08-12T10:54:35.456Z,32.91
2023-08-12T10:57:02.769Z,32.37
2023-08-12T10:59:54.562Z,32.00
2023-08-12T11:02:34.832Z,31.76
2023-08-12T11:05:03.345Z,30.72
2023-08-12T11:07:53.268Z,30.22
2023-08-12T11:10:23.591Z,30.56
2023-08-12T11:12:55.435Z,31.01
2023-08-12T11:15:33.735Z,31.26
2023-08-12T11:18:17.710Z,31.46
2023-08-12T11:20:45.336Z,29.28
2023-08-12T11:23:12.960Z,28.14
2023-08-12T11:25:41.112Z,28.81
2023-08-12T11:28:08.703Z,28.16
2023-08-12T11:30:36.464Z,28.59
2023-08-12T11:33:04.338Z,29.45
2023-08-12T11:35:31.827Z,29.75
2023-08-12T11:37:59.828Z,29.99
2023-08-12T11:40:28.223Z,29.87
2023-08-12T11:42:56.020Z,30.03
2023-08-12T11:45:25.212Z,29.11
2023-08-12T11:47:56.626Z,30.05
2023-08-12T11:50:25.826Z,30.23
2023-08-12T11:52:54.136Z,30.02
2023-08-12T11:55:21.562Z,30.13
2023-08-12T11:57:49.206Z,27.89
2023-08-12T12:00:19.568Z,28.57
2023-08-12T12:02:54.043Z,29.51
2023-08-12T12:05:29.148Z,30.15
2023-08-12T12:07:56.634Z,30.30
2023-08-12T12:10:34.311Z,30.43
2023-08-12T12:13:04.651Z,31.16
2023-08-12T12:15:32.950Z,30.09
2023-08-12T12:18:00.435Z,30.48
2023-08-12T12:20:30.425Z,29.61
2023-08-12T12:22:58.236Z,29.22
2023-08-12T12:25:25.655Z,28.66
2023-08-12T12:27:54.214Z,27.73
2023-08-12T12:30:21.931Z,27.81
2023-08-12T12:32:49.916Z,29.00
2023-08-12T12:35:17.496Z,27.73
2023-08-12T12:37:45.216Z,27.77
2023-08-12T12:40:12.919Z,28.36
2023-08-12T12:42:40.308Z,27.99
2023-08-12T12:45:08.652Z,28.53
2023-08-12T12:47:36.111Z,28.94
2023-08-12T12:50:03.600Z,27.52
2023-08-12T12:52:31.290Z,26.80
2023-08-12T12:54:58.851Z,27.25
2023-08-12T12:57:26.348Z,28.00
2023-08-12T12:59:54.004Z,27.76
2023-08-12T13:02:21.443Z,28.24
2023-08-12T13:04:50.706Z,28.93
2023-08-12T13:07:18.462Z,28.20
2023-08-12T13:09:46.197Z,27.63
2023-08-12T13:12:13.923Z,28.09
2023-08-12T13:14:41.821Z,28.62
2023-08-12T13:17:09.236Z,29.18
2023-08-12T13:19:36.671Z,28.89
2023-08-12T13:22:04.765Z,29.12
2023-08-12T13:24:32.307Z,29.27
2023-08-12T13:27:00.548Z,29.52
2023-08-12T13:29:28.356Z,29.27
2023-08-12T13:31:55.775Z,28.82
2023-08-12T13:34:23.591Z,29.11
2023-08-12T13:36:51.248Z,29.39
2023-08-12T13:39:19.000Z,29.46
2023-08-12T13:41:46.437Z,29.35
2023-08-12T13:44:14.204Z,29.46
2023-08-12T13:46:41.636Z,29.81
2023-08-12T13:49:09.026Z,29.78
2023-08-12T13:51:36.694Z,29.59
2023-08-12T13:54:04.304Z,29.39
2023-08-12T13:56:32.520Z,29.62
2023-08-12T13:59:00.339Z,29.65
2023-08-12T14:01:27.846Z,29.65
2023-08-12T14:03:55.615Z,29.76
2023-08-12T14:06:23.066Z,30.09
2023-08-12T14:08:50.506Z,29.78
2023-08-12T14:11:18.641Z,29.97
2023-08-12T14:13:46.014Z,29.85
2023-08-12T14:16:13.448Z,29.96
2023-08-12T14:18:41.128Z,28.85
2023-08-12T14:21:08.558Z,28.19
2023-08-12T14:23:35.918Z,29.26
2023-08-12T14:26:04.053Z,28.92
2023-08-12T14:28:31.437Z,28.47
2023-08-12T14:30:59.125Z,27.71
2023-08-12T14:33:27.176Z,27.63
2023-08-12T14:35:55.476Z,28.18
2023-08-12T14:38:22.983Z,28.65
2023-08-12T14:40:50.675Z,28.60
2023-08-12T14:43:18.052Z,28.93
2023-08-12T14:45:46.196Z,29.03
2023-08-12T14:48:16.129Z,28.94
2023-08-12T14:50:43.624Z,28.75
2023-08-12T14:53:11.119Z,28.64
2023-08-12T14:55:38.789Z,28.69
2023-08-12T14:58:06.158Z,28.62
2023-08-12T15:00:34.881Z,28.87
2023-08-12T15:03:03.042Z,29.03
2023-08-12T15:05:30.560Z,29.30
2023-08-12T15:07:58.436Z,28.81
2023-08-12T15:10:26.307Z,29.41
2023-08-12T15:12:53.800Z,29.14
2023-08-12T15:15:21.241Z,29.33
2023-08-12T15:17:49.015Z,29.29
2023-08-12T15:20:16.514Z,29.25
2023-08-12T15:22:43.947Z,28.92
2023-08-12T15:25:11.651Z,28.80
2023-08-12T15:27:39.617Z,28.73
2023-08-12T15:30:07.661Z,29.02
2023-08-12T15:32:36.196Z,29.07
2023-08-12T15:35:03.699Z,28.97
2023-08-12T15:37:31.682Z,29.03
2023-08-12T15:39:59.342Z,29.55
2023-08-12T15:42:26.857Z,28.86
2023-08-12T15:44:54.238Z,29.11
2023-08-12T15:47:21.921Z,28.15
2023-08-12T15:49:49.325Z,28.29
2023-08-12T15:52:16.777Z,28.27
2023-08-12T15:54:44.464Z,28.76
2023-08-12T15:57:12.033Z,29.24
2023-08-12T15:59:39.721Z,29.11
2023-08-12T16:02:10.203Z,29.14
2023-08-12T16:04:38.347Z,29.34
2023-08-12T16:07:05.721Z,28.21
2023-08-12T16:09:33.202Z,28.30
2023-08-12T16:12:00.908Z,28.96
2023-08-12T16:14:28.332Z,28.74
2023-08-12T16:16:55.745Z,28.91
2023-08-12T16:19:23.432Z,28.90
2023-08-12T16:21:50.812Z,28.93
2023-08-12T16:24:18.442Z,28.92
2023-08-12T16:26:46.081Z,29.15
2023-08-12T16:29:13.479Z,28.89
2023-08-12T16:31:40.956Z,29.01
2023-08-12T16:34:08.674Z,29.07
2023-08-12T16:36:36.106Z,29.03
2023-08-12T16:39:04.418Z,28.99
2023-08-12T16:41:32.092Z,28.77
2023-08-12T16:43:59.508Z,28.69
2023-08-12T16:46:26.974Z,28.78
2023-08-12T16:48:54.634Z,28.71
2023-08-12T16:51:22.042Z,28.71
2023-08-12T16:53:49.534Z,28.67
2023-08-12T16:56:17.287Z,28.64
2023-08-12T16:58:44.702Z,28.49
2023-08-12T17:01:12.154Z,28.47
2023-08-12T17:03:40.000Z,28.41
2023-08-12T17:06:07.472Z,28.31
2023-08-12T17:08:34.942Z,28.19
2023-08-12T17:11:07.547Z,28.08
2023-08-12T17:13:34.932Z,27.89
2023-08-12T17:16:02.623Z,27.90
2023-08-12T17:18:30.011Z,27.95
2023-08-12T17:20:57.433Z,27.72
2023-08-12T17:23:25.118Z,27.68
2023-08-12T17:25:52.525Z,27.60
2023-08-12T17:28:19.982Z,27.54
2023-08-12T17:30:47.637Z,27.53
2023-08-12T17:33:15.334Z,27.44
2023-08-12T17:35:43.714Z,27.27
2023-08-12T17:38:11.902Z,27.36
2023-08-12T17:40:39.400Z,27.28
2023-08-12T17:43:06.791Z,27.24
2023-08-12T17:45:34.974Z,27.12
2023-08-12T17:48:05.302Z,27.05
2023-08-12T17:50:32.692Z,27.02
2023-08-12T17:53:00.372Z,27.00
2023-08-12T17:55:28.495Z,26.86
2023-08-12T17:57:56.773Z,26.97
2023-08-12T18:00:24.610Z,26.61
2023-08-12T18:02:52.347Z,26.60
2023-08-12T18:05:19.833Z,26.32
2023-08-12T18:07:47.248Z,26.25
2023-08-12T18:10:14.914Z,26.18
2023-08-12T18:12:42.334Z,26.14
2023-08-12T18:15:10.343Z,26.06
2023-08-12T18:17:38.085Z,25.98
2023-08-12T18:20:06.159Z,26.00
2023-08-12T18:22:33.738Z,25.79
2023-08-12T18:25:01.552Z,25.71
2023-08-12T18:27:29.282Z,25.42
2023-08-12T18:29:57.584Z,25.26
2023-08-12T18:32:27.737Z,25.13
2023-08-12T18:34:57.341Z,25.18
2023-08-12T18:37:24.992Z,25.01
2023-08-12T18:39:52.408Z,24.84
2023-08-12T18:42:20.024Z,24.67
2023-08-12T18:44:47.729Z,25.13
2023-08-12T18:47:16.556Z,25.00
2023-08-12T18:49:44.546Z,24.95
2023-08-12T18:52:12.997Z,24.73
2023-08-12T18:54:41.177Z,24.86
2023-08-12T18:57:08.620Z,25.12
2023-08-12T18:59:36.255Z,24.80
2023-08-12T19:02:04.260Z,24.68
2023-08-12T19:04:31.987Z,24.46
2023-08-12T19:06:59.980Z,24.58
2023-08-12T19:09:27.439Z,24.55
2023-08-12T19:11:54.864Z,24.53
2023-08-12T19:14:22.780Z,24.40
2023-08-12T19:16:50.194Z,24.60
2023-08-12T19:19:17.676Z,24.58
2023-08-12T19:21:45.341Z,24.15
2023-08-12T19:24:12.821Z,24.11
2023-08-12T19:26:41.068Z,24.01
2023-08-12T19:29:08.730Z,24.12
2023-08-12T19:31:36.221Z,24.04
2023-08-12T19:34:03.960Z,24.10
2023-08-12T19:36:31.642Z,24.19
2023-08-12T19:38:59.036Z,23.87
2023-08-12T19:41:28.617Z,24.01
2023-08-12T19:43:59.832Z,24.09
2023-08-12T19:46:27.385Z,23.76
2023-08-12T19:48:55.159Z,24.10
2023-08-12T19:51:23.128Z,23.81
2023-08-12T19:53:50.527Z,23.76
2023-08-12T19:56:17.944Z,23.22
2023-08-12T19:58:45.572Z,23.53
2023-08-12T20:01:13.037Z,23.10
2023-08-12T20:03:40.781Z,23.54
2023-08-12T20:06:11.479Z,23.50
2023-08-12T20:08:38.904Z,23.25
2023-08-12T20:11:06.623Z,23.06
2023-08-12T20:13:34.034Z,23.04
2023-08-12T20:16:01.674Z,22.73
2023-08-12T20:18:29.388Z,22.63
2023-08-12T20:20:56.765Z,22.73
2023-08-12T20:23:24.195Z,22.71
2023-08-12T20:25:51.868Z,22.65
2023-08-12T20:28:19.269Z,23.16
2023-08-12T20:30:47.422Z,23.08
2023-08-12T20:33:15.187Z,23.09
2023-08-12T20:35:43.382Z,23.01
2023-08-12T20:38:10.857Z,22.66
2023-08-12T20:40:38.529Z,22.71
2023-08-12T20:43:05.956Z,22.43
2023-08-12T20:45:33.387Z,22.56
2023-08-12T20:48:01.139Z,22.58
2023-08-12T20:50:28.581Z,22.95
2023-08-12T20:52:55.985Z,22.84
2023-08-12T20:55:23.670Z,22.72
2023-08-12T20:57:51.308Z,22.39
2023-08-12T21:00:18.938Z,22.09
2023-08-12T21:02:46.790Z,22.18
2023-08-12T21:05:14.351Z,22.53
2023-08-12T21:07:42.002Z,22.25
2023-08-12T21:10:10.767Z,22.50
2023-08-12T21:12:38.671Z,22.22
2023-08-12T21:15:06.541Z,22.20
2023-08-12T21:17:34.239Z,22.13
2023-08-12T21:20:01.646Z,21.93
2023-08-12T21:22:29.132Z,21.83
2023-08-12T21:24:56.799Z,22.09
2023-08-12T21:27:24.311Z,22.17
2023-08-12T21:29:52.110Z,22.52
2023-08-12T21:32:19.981Z,21.91
2023-08-12T21:34:47.414Z,21.90
2023-08-12T21:37:15.741Z,21.71
2023-08-12T21:39:43.384Z,21.87
2023-08-12T21:42:10.875Z,21.94
2023-08-12T21:44:38.267Z,22.21
2023-08-12T21:47:06.800Z,22.13
2023-08-12T21:49:34.215Z,21.94
2023-08-12T21:52:01.624Z,21.85
2023-08-12T21:54:29.375Z,22.00
2023-08-12T21:56:57.112Z,21.95
2023-08-12T21:59:24.539Z,21.68
2023-08-12T22:01:52.201Z,21.56
2023-08-12T22:04:19.870Z,22.00
2023-08-12T22:06:47.276Z,21.77
2023-08-12T22:09:14.757Z,21.71
2023-08-12T22:11:42.424Z,21.97
2023-08-12T22:14:09.805Z,21.57
2023-08-12T22:16:37.292Z,21.81
2023-08-12T22:19:05.467Z,21.99
2023-08-12T22:21:32.871Z,21.43
2023-08-12T22:24:00.355Z,21.32
2023-08-12T22:26:28.047Z,21.45
2023-08-12T22:28:55.467Z,21.42
2023-08-12T22:31:22.893Z,21.54
2023-08-12T22:33:50.584Z,21.66
2023-08-12T22:36:18.004Z,21.56
2023-08-12T22:38:47.913Z,21.27
2023-08-12T22:41:15.600Z,21.56
2023-08-12T22:43:43.014Z,21.96
2023-08-12T22:46:10.468Z,21.52
2023-08-12T22:48:38.289Z,21.57
2023-08-12T22:51:05.710Z,21.86
2023-08-12T22:53:33.137Z,21.21
2023-08-12T22:56:00.894Z,21.52
2023-08-12T22:58:28.313Z,21.44
2023-08-12T23:00:55.735Z,21.14
2023-08-12T23:03:23.399Z,21.33
2023-08-12T23:05:50.853Z,21.49
2023-08-12T23:08:18.320Z,21.43
2023-08-12T23:10:45.982Z,21.40
2023-08-12T23:13:13.382Z,21.04
2023-08-12T23:15:43.383Z,20.86
2023-08-12T23:18:11.054Z,21.37
2023-08-12T23:20:38.472Z,20.95
2023-08-12T23:23:05.844Z,21.39
2023-08-12T23:25:33.552Z,20.87
2023-08-12T23:28:00.980Z,20.99
2023-08-12T23:30:28.409Z,20.63
2023-08-12T23:32:56.178Z,20.61
2023-08-12T23:35:23.578Z,20.89
2023-08-12T23:37:50.991Z,20.96
2023-08-12T23:40:18.633Z,20.59
2023-08-12T23:42:46.086Z,20.53
2023-08-12T23:45:13.625Z,20.93
2023-08-12T23:47:44.000Z,20.42
2023-08-12T23:50:14.491Z,20.30
2023-08-12T23:52:42.192Z,20.56
2023-08-12T23:55:09.932Z,20.51
2023-08-12T23:57:37.342Z,20.63
